Tumble, United Kingdom
Current Conditions -  °F | °C
As of 1:50 AM on Sunday 26 Oct 2014 (Local Time) from EGOP Reporting Station
Broken Clouds Broken Clouds  
Wind Chill: 14°   Ceiling: 3700
Heat Index: 14°   Visibility: 6mi
Dew Point: 11°   Wind: 29mph
Humidity: 82%   Direction: 220°SW
Pressure: 30.09"   Gusts: NA
Location:  51.78°N, 4.11°W
Report Text: EGOP 260050Z AUTO 22025KT 9999 // FEW028/// BKN037/// 14/11 Q1019
Loading
Personal Weather Stations






























Interactive Weather Map
Tropical Storm Tracking
New forecast layout! Learn more

10-Day Weather Forecast

Advertisements
Track Severe Weather on mobile